Pagina principale
METAR-TAF:

METAR-TAF

Aeroporti :

Aeroporto militare

Meppen, Germania

latitudine: 52-43-24N, longitudine: 007-19-35E, altezza: 21 m

Osservazione

Il bollettino è stato emesso 41 minuti fa, alle 06:20 UTC
Vento 7 kt da nord
Temperature 14°C
Umidità 72%
Pressione 1029 hPa
Visibilità 10 km o più
Nuvoloso ad un'altezza di 1900 ft

METAR: ETWM 270620Z 36007KT 9999 BKN019 14/09 Q1029 WHT

Ora: 09:01 (07:01 UTC)


TAF: mancante

Osservazioni e previsioni meteorologiche di più di 4000 aeroporti (messaggi METAR e TAF).

Le stazioni disponibili sono rappresentate dai dischi gialli e rossi sulla carta.

Puntare il mouse per vedere il nome della stazione.

Clicca sopra per visualizzare le osservazioni e previsioni meteorologiche.

Per cambiare la mappa : fare clic sui pulsanti verdi con una croce nera per ingrandire, il pulsante verde con un trattino per diminuire, o sulla freccia verde per le mappe adiacenti.


METAR-TAF: